Time;durP1;ratioP1;P1;durP2;ratioP2;P2;SDS_P1;SDS_P2;PMS_P1;PMS_P2;Temp;Humidity;BMP_temperature;BMP_pressure;BME280_temperature;BME280_humidity;BME280_pressure;Samples;Min_cycle;Max_cycle;Signal;HPM_P1;HPM_P2
2021/12/10 00:00:43;;;;;;;15.60;9.93;;;;;;;3.48;97.99;100582.84;1667486;85;22420;-69
2021/12/10 00:03:15;;;;;;;16.50;10.70;;;;;;;3.47;98.04;100585.20;1714511;83;21495;-69
2021/12/10 00:05:54;;;;;;;14.40;9.70;;;;;;;3.49;98.11;100584.48;1672064;84;21001;-68
2021/12/10 00:08:24;;;;;;;14.30;9.48;;;;;;;3.55;98.21;100579.37;1656214;86;21637;-68
2021/12/10 00:10:54;;;;;;;12.53;8.88;;;;;;;3.58;98.24;100586.88;1668514;85;21004;-68
2021/12/10 00:13:21;;;;;;;13.05;8.63;;;;;;;3.63;98.30;100587.08;1727715;83;21800;-68
2021/12/10 00:15:54;;;;;;;15.53;10.00;;;;;;;3.65;98.29;100589.81;1664682;85;21065;-68
2021/12/10 00:18:19;;;;;;;14.90;9.73;;;;;;;3.65;98.25;100587.66;1677336;85;21174;-68
2021/12/10 00:20:46;;;;;;;14.03;9.25;;;;;;;3.67;98.32;100594.35;1692698;83;21556;-67
2021/12/10 00:23:19;;;;;;;13.60;9.15;;;;;;;3.68;98.32;100589.36;1677655;85;21183;-67
2021/12/10 00:25:50;;;;;;;14.70;9.88;;;;;;;3.71;98.36;100598.19;1692811;84;21807;-68
2021/12/10 00:28:25;;;;;;;13.40;8.93;;;;;;;3.75;98.39;100601.22;1676503;85;21149;-68
2021/12/10 00:31:30;;;;;;;13.32;9.43;;;;;;;3.81;98.44;100599.57;1692248;84;20949;-68
2021/12/10 00:33:55;;;;;;;12.25;8.48;;;;;;;3.88;98.43;100593.73;1690416;84;21009;-68
2021/12/10 00:36:22;;;;;;;12.80;8.55;;;;;;;3.91;98.40;100594.13;1692239;84;21501;-68
2021/12/10 00:38:51;;;;;;;13.65;9.40;;;;;;;3.88;98.34;100593.73;1693047;84;21215;-67
2021/12/10 00:41:19;;;;;;;13.43;8.98;;;;;;;3.88;98.41;100602.98;1685499;84;21072;-68
2021/12/10 00:43:46;;;;;;;13.25;8.38;;;;;;;3.91;98.45;100598.08;1724421;82;21006;-68
2021/12/10 00:46:15;;;;;;;14.00;8.78;;;;;;;3.93;98.45;100596.05;1692800;84;21506;-68
2021/12/10 00:48:42;;;;;;;14.80;9.70;;;;;;;3.93;98.43;100590.77;1692925;84;21064;-68
2021/12/10 00:51:10;;;;;;;12.93;9.33;;;;;;;3.91;98.44;100594.13;1692893;84;21098;-68
2021/12/10 00:53:38;;;;;;;14.83;9.78;;;;;;;3.94;98.48;100594.22;1692817;84;21152;-67
2021/12/10 00:56:05;;;;;;;14.05;9.23;;;;;;;3.93;98.48;100596.05;1692862;84;20997;-68
2021/12/10 00:58:33;;;;;;;13.75;8.70;;;;;;;3.95;98.50;100597.18;1692801;84;21059;-68
2021/12/10 01:01:05;;;;;;;11.68;8.38;;;;;;;3.97;98.54;100590.63;1692887;84;21528;-68
2021/12/10 01:03:39;;;;;;;;;;;;;;;3.99;98.53;100594.41;1695344;84;21180;-68
2021/12/10 01:06:08;;;;;;;13.05;8.50;;;;;;;3.98;98.55;100592.28;1677219;84;20200;-67
2021/12/10 01:08:38;;;;;;;13.72;9.15;;;;;;;4.00;98.61;100588.89;1677650;85;21597;-68
2021/12/10 01:11:10;;;;;;;11.95;8.38;;;;;;;4.00;98.61;100577.52;1692836;84;21050;-68
2021/12/10 01:13:40;;;;;;;13.80;9.50;;;;;;;3.98;98.62;100571.63;1693211;84;20979;-68
2021/12/10 01:25:04;;;;;;;14.53;9.58;;;;;;;4.03;98.76;100567.03;1676893;85;21045;-68
2021/12/10 01:27:30;;;;;;;15.68;9.60;;;;;;;4.02;98.82;100559.63;1676328;85;20951;-67
2021/12/10 01:29:57;;;;;;;13.88;9.13;;;;;;;4.04;98.89;100562.84;1677051;85;21226;-68
2021/12/10 01:32:29;;;;;;;14.55;9.58;;;;;;;4.47;98.21;100559.47;1692964;84;21068;-67
2021/12/10 01:34:55;;;;;;;14.38;9.70;;;;;;;4.57;97.67;100548.41;1664341;86;21071;-68
2021/12/10 01:37:24;;;;;;;12.45;8.48;;;;;;;4.60;97.40;100551.42;1664763;86;21113;-68
2021/12/10 01:39:52;;;;;;;14.98;10.03;;;;;;;4.26;98.11;100552.73;1664636;85;21063;-68
2021/12/10 01:44:58;;;;;;;14.25;9.28;;;;;;;4.23;98.64;100539.94;1677096;85;21018;-68
2021/12/10 01:47:29;;;;;;;12.78;9.10;;;;;;;4.23;98.71;100540.75;1677219;85;20955;-68
2021/12/10 01:49:56;;;;;;;16.57;10.60;;;;;;;4.20;98.73;100531.12;1692829;84;21107;-68
2021/12/10 01:52:23;;;;;;;14.23;9.30;;;;;;;4.17;98.77;100528.91;1677424;85;21014;-68
2021/12/10 01:54:57;;;;;;;14.30;10.10;;;;;;;4.17;98.87;100525.74;1691745;83;21154;-68
2021/12/10 01:57:28;;;;;;;16.42;10.70;;;;;;;4.18;98.92;100530.03;1676960;85;20971;-68
2021/12/10 01:59:54;;;;;;;14.30;10.30;;;;;;;4.21;99.04;100537.53;1692186;83;21080;-67
2021/12/10 02:02:25;;;;;;;15.35;10.72;;;;;;;4.27;99.14;100539.80;1677078;85;21502;-68
2021/12/10 02:04:53;;;;;;;14.30;9.80;;;;;;;4.33;99.23;100535.49;1677359;85;21132;-68
2021/12/10 02:07:23;;;;;;;14.93;9.93;;;;;;;4.40;99.32;100542.34;1677621;85;21319;-67
2021/12/10 02:09:51;;;;;;;14.05;9.98;;;;;;;4.48;99.36;100542.59;1676990;85;20959;-68
2021/12/10 02:12:19;;;;;;;14.83;9.83;;;;;;;4.58;99.43;100539.46;1693195;84;21021;-68
2021/12/10 02:14:56;;;;;;;13.75;9.98;;;;;;;4.63;99.44;100543.56;1677447;84;21113;-68
2021/12/10 02:17:17;;;;;;;15.50;10.40;;;;;;;4.72;99.53;100542.27;1676942;85;21026;-67
2021/12/10 02:19:43;;;;;;;14.93;10.00;;;;;;;4.80;99.53;100545.94;1677656;85;21095;-67
2021/12/10 02:22:10;;;;;;;15.50;10.68;;;;;;;4.91;99.55;100545.75;1677318;85;21027;-67
2021/12/10 02:24:37;;;;;;;13.48;9.53;;;;;;;4.97;99.53;100537.42;1692878;84;21120;-67
2021/12/10 02:27:06;;;;;;;15.55;10.98;;;;;;;4.99;99.39;100535.37;1677325;85;21007;-68
2021/12/10 02:29:35;;;;;;;12.73;9.48;;;;;;;4.96;99.26;100541.11;1677725;85;20999;-67
2021/12/10 02:32:04;;;;;;;14.10;10.65;;;;;;;4.97;99.23;100544.04;1678075;85;21124;-67
2021/12/10 02:34:30;;;;;;;15.70;11.35;;;;;;;4.93;99.14;100549.77;1677001;85;21015;-67
2021/12/10 02:36:57;;;;;;;15.48;10.72;;;;;;;4.96;99.22;100551.70;1693063;84;21092;-67
2021/12/10 02:39:25;;;;;;;15.50;11.22;;;;;;;5.01;99.30;100552.66;1677306;85;21451;-67
2021/12/10 02:41:52;;;;;;;16.85;11.22;;;;;;;5.08;99.27;100551.27;1692096;84;21691;-67
2021/12/10 02:44:23;;;;;;;15.63;10.82;;;;;;;5.05;99.07;100559.64;1692869;84;21143;-68
2021/12/10 02:46:50;;;;;;;14.50;10.25;;;;;;;5.08;99.12;100553.91;1677765;85;21026;-67
2021/12/10 02:49:17;;;;;;;14.60;10.18;;;;;;;5.07;99.03;100558.41;1677546;85;21023;-68
2021/12/10 02:51:44;;;;;;;14.85;10.28;;;;;;;5.04;98.98;100563.33;1692905;84;20974;-68
2021/12/10 02:54:14;;;;;;;15.30;10.60;;;;;;;5.00;98.94;100562.97;1677547;85;21002;-68
2021/12/10 02:56:41;;;;;;;15.32;10.68;;;;;;;4.97;98.86;100565.22;1677753;85;21455;-67
2021/12/10 02:59:08;;;;;;;16.30;10.82;;;;;;;4.94;98.89;100562.00;1692905;84;21076;-67
2021/12/10 03:01:42;;;;;;;14.65;10.05;;;;;;;4.91;98.83;100562.44;1677640;85;21121;-67
2021/12/10 03:04:09;;;;;;;15.98;11.40;;;;;;;4.93;98.89;100561.69;1677254;85;21538;-67
2021/12/10 03:06:49;;;;;;;14.65;10.80;;;;;;;4.92;98.84;100556.63;1677960;85;21545;-67
2021/12/10 03:09:16;;;;;;;14.85;10.72;;;;;;;4.94;98.86;100561.20;1692546;84;21125;-68
2021/12/10 03:11:46;;;;;;;13.70;9.73;;;;;;;4.97;98.84;100561.24;1677583;85;20967;-68
2021/12/10 03:14:12;;;;;;;15.08;10.58;;;;;;;4.98;98.85;100553.62;1677728;85;21108;-68
2021/12/10 03:16:41;;;;;;;14.80;10.70;;;;;;;4.96;98.79;100561.77;1693059;84;21016;-68
2021/12/10 03:19:07;;;;;;;16.70;10.85;;;;;;;4.96;98.83;100565.73;1677735;85;20983;-68
2021/12/10 03:21:42;;;;;;;13.58;10.63;;;;;;;5.02;98.93;100566.70;1693096;84;21084;-68
2021/12/10 03:24:08;;;;;;;13.80;10.40;;;;;;;5.09;98.97;100574.86;1692636;84;20957;-70
2021/12/10 03:26:35;;;;;;;15.43;10.78;;;;;;;5.16;98.98;100572.14;1693116;84;20980;-68
2021/12/10 03:29:02;;;;;;;14.75;10.58;;;;;;;5.20;98.94;100564.08;1692854;84;21051;-70
2021/12/10 03:31:29;;;;;;;15.98;11.60;;;;;;;5.23;98.90;100571.58;1692851;84;21028;-68
2021/12/10 03:33:56;;;;;;;13.28;9.90;;;;;;;5.25;98.86;100568.17;1693011;84;21151;-68
2021/12/10 03:36:23;;;;;;;15.70;11.25;;;;;;;5.24;98.81;100565.24;1692988;84;21089;-68
2021/12/10 03:38:50;;;;;;;15.70;10.82;;;;;;;5.20;98.64;100564.08;1693322;84;21023;-67
2021/12/10 03:41:17;;;;;;;16.23;11.53;;;;;;;5.16;98.54;100563.67;1692977;84;20967;-67
2021/12/10 03:43:45;;;;;;;17.32;11.65;;;;;;;5.09;98.46;100565.59;1693137;84;21012;-67
2021/12/10 03:46:11;;;;;;;17.57;11.85;;;;;;;5.07;98.56;100570.31;1692918;84;21180;-68
2021/12/10 03:48:41;;;;;;;17.10;11.70;;;;;;;5.06;98.52;100570.52;1693072;84;21003;-68
2021/12/10 03:51:11;;;;;;;16.55;11.88;;;;;;;5.08;98.59;100569.28;1692925;84;21027;-67
2021/12/10 03:53:37;;;;;;;16.07;11.63;;;;;;;5.13;98.64;100561.50;1693033;84;21510;-68
2021/12/10 03:56:10;;;;;;;16.52;11.83;;;;;;;5.18;98.62;100574.87;1693204;84;21087;-68
2021/12/10 03:58:37;;;;;;;18.12;12.37;;;;;;;5.25;98.62;100579.28;1693227;84;21541;-68
2021/12/10 04:01:05;;;;;;;17.70;12.30;;;;;;;5.28;98.62;100585.47;1692812;84;21479;-67
2021/12/10 04:03:33;;;;;;;17.52;12.33;;;;;;;5.30;98.60;100589.52;1693181;84;20968;-68
2021/12/10 04:06:00;;;;;;;17.60;12.33;;;;;;;5.32;98.55;100587.44;1692640;84;21066;-68
2021/12/10 04:08:26;;;;;;;17.12;12.35;;;;;;;5.33;98.53;100594.38;1677522;85;21027;-68
2021/12/10 04:10:54;;;;;;;15.95;11.10;;;;;;;5.38;98.55;100587.88;1692897;84;21163;-68
2021/12/10 04:13:21;;;;;;;17.77;12.73;;;;;;;5.46;98.49;100585.96;1677709;85;21640;-68
2021/12/10 04:15:48;;;;;;;17.87;12.65;;;;;;;5.48;98.41;100574.64;1677512;85;20995;-68
2021/12/10 04:18:15;;;;;;;17.37;12.55;;;;;;;5.49;98.33;100577.05;1677692;85;21491;-68
2021/12/10 04:20:43;;;;;;;18.90;12.40;;;;;;;5.44;98.03;100570.30;1677692;85;20979;-68
2021/12/10 04:23:15;;;;;;;16.17;11.60;;;;;;;5.33;97.85;100573.19;1692737;84;21068;-68
2021/12/10 04:25:42;;;;;;;17.85;12.30;;;;;;;5.25;97.76;100566.85;1677455;85;21066;-68
2021/12/10 04:28:12;;;;;;;16.97;12.03;;;;;;;5.19;97.71;100573.02;1692766;84;21013;-68
2021/12/10 04:30:41;;;;;;;16.42;11.20;;;;;;;5.11;97.65;100574.14;1677417;85;21018;-68
2021/12/10 04:33:08;;;;;;;18.32;12.30;;;;;;;5.01;97.63;100569.06;1692798;84;21123;-68
2021/12/10 04:35:36;;;;;;;17.52;12.07;;;;;;;4.98;97.72;100568.17;1677538;85;21105;-68
2021/12/10 04:38:04;;;;;;;18.30;12.55;;;;;;;4.98;97.78;100570.30;1677710;85;21566;-68
2021/12/10 04:40:31;;;;;;;17.98;13.03;;;;;;;4.93;97.71;100566.17;1692777;84;21250;-67
2021/12/10 04:42:57;;;;;;;17.07;11.97;;;;;;;4.93;97.77;100574.11;1677522;85;21124;-67
2021/12/10 04:45:24;;;;;;;19.95;13.48;;;;;;;4.98;97.90;100571.63;1692782;84;20964;-68
2021/12/10 04:47:51;;;;;;;18.35;13.28;;;;;;;5.03;97.86;100566.98;1677582;85;21841;-67
2021/12/10 04:50:19;;;;;;;17.00;12.70;;;;;;;5.05;97.75;100567.06;1692749;84;21539;-68
2021/12/10 04:52:46;;;;;;;17.48;12.33;;;;;;;5.02;97.57;100554.80;1677482;85;21139;-68
2021/12/10 04:55:14;;;;;;;18.05;12.82;;;;;;;4.94;97.32;100546.12;1692793;84;21007;-68
2021/12/10 04:57:41;;;;;;;17.92;12.60;;;;;;;4.85;97.25;100550.59;1675007;85;21031;-68
2021/12/10 05:00:11;;;;;;;18.52;12.55;;;;;;;4.80;97.27;100550.42;1662825;85;21860;-69
2021/12/10 05:02:39;;;;;;;20.02;12.50;;;;;;;4.72;97.28;100548.88;1660905;85;21090;-67
2021/12/10 05:05:08;;;;;;;17.55;11.83;;;;;;;4.69;97.30;100562.55;1719191;83;20999;-68
2021/12/10 05:07:37;;;;;;;17.50;11.75;;;;;;;4.65;97.36;100550.27;1713845;83;21447;-68
2021/12/10 05:10:07;;;;;;;19.23;12.33;;;;;;;4.67;97.39;100551.36;1677386;84;20976;-68
2021/12/10 05:12:36;;;;;;;15.35;10.85;;;;;;;4.65;97.42;100552.91;1672737;84;21054;-67
2021/12/10 05:15:08;;;;;;;19.85;12.80;;;;;;;4.62;97.44;100544.09;1676603;84;21543;-68
2021/12/10 05:17:38;;;;;;;17.12;12.30;;;;;;;4.63;97.52;100546.22;1674463;84;21039;-68
2021/12/10 05:20:12;;;;;;;18.02;12.45;;;;;;;4.67;97.55;100556.65;1663436;86;21496;-67
2021/12/10 05:22:41;;;;;;;17.65;12.28;;;;;;;4.67;97.56;100553.52;1663625;86;21058;-67
2021/12/10 05:25:08;;;;;;;17.98;11.97;;;;;;;4.71;97.65;100560.50;1665196;85;21132;-68
2021/12/10 05:27:36;;;;;;;18.05;12.45;;;;;;;4.72;97.65;100562.11;1672313;85;21202;-68
2021/12/10 05:30:05;;;;;;;17.82;12.47;;;;;;;4.72;97.75;100563.43;1680626;84;20936;-68
2021/12/10 05:32:33;;;;;;;15.70;11.18;;;;;;;4.77;97.83;100563.60;1674794;84;21074;-67
2021/12/10 05:35:00;;;;;;;18.05;12.03;;;;;;;4.77;97.79;100564.92;1708455;82;21071;-67
2021/12/10 05:37:27;;;;;;;19.10;13.05;;;;;;;4.79;97.83;100569.98;1676327;83;21148;-67
2021/12/10 05:39:55;;;;;;;17.95;12.82;;;;;;;4.75;97.89;100576.23;1666852;85;21106;-67
2021/12/10 05:42:21;;;;;;;17.17;12.18;;;;;;;4.78;97.91;100582.41;1707463;83;20975;-68
2021/12/10 05:44:48;;;;;;;18.45;12.82;;;;;;;4.79;97.92;100569.47;1698579;84;21117;-68
2021/12/10 05:47:15;;;;;;;16.93;12.23;;;;;;;4.74;97.91;100575.94;1636568;87;20989;-68
2021/12/10 05:49:41;;;;;;;16.93;11.60;;;;;;;4.75;98.02;100584.16;1664563;86;21057;-68
2021/12/10 05:52:08;;;;;;;18.35;12.63;;;;;;;4.77;98.07;100583.45;1650098;87;21090;-67
2021/12/10 05:54:35;;;;;;;16.60;11.93;;;;;;;4.79;98.07;100580.57;1667528;85;21130;-67
2021/12/10 05:57:03;;;;;;;16.57;11.93;;;;;;;4.79;98.08;100581.38;1717623;83;21126;-68
2021/12/10 05:59:30;;;;;;;16.85;11.85;;;;;;;4.79;98.11;100585.86;1650003;86;21039;-68
2021/12/10 06:01:58;;;;;;;19.95;13.08;;;;;;;4.80;98.18;100593.56;1667398;85;21146;-68
2021/12/10 06:04:27;;;;;;;17.50;12.73;;;;;;;4.81;98.20;100593.89;1719869;83;21109;-68
2021/12/10 06:06:55;;;;;;;16.90;12.23;;;;;;;4.84;98.23;100585.52;1714278;83;20972;-68
2021/12/10 06:09:23;;;;;;;21.05;15.03;;;;;;;4.86;98.23;100590.58;1707901;83;21522;-68
2021/12/10 06:11:49;;;;;;;21.40;14.70;;;;;;;4.85;98.26;100588.97;1698364;84;21491;-68
2021/12/10 06:14:16;;;;;;;21.70;14.95;;;;;;;4.89;98.31;100587.49;1664953;85;21123;-69
2021/12/10 06:16:43;;;;;;;20.85;14.47;;;;;;;4.93;98.34;100585.50;1661354;86;20960;-68
2021/12/10 06:19:10;;;;;;;23.02;15.08;;;;;;;5.01;98.36;100583.63;1664829;86;20999;-68
2021/12/10 06:21:37;;;;;;;18.85;13.15;;;;;;;5.03;98.32;100587.64;1668940;84;21030;-68
2021/12/10 06:24:04;;;;;;;21.42;14.65;;;;;;;5.02;98.31;100590.01;1692412;84;20976;-68
2021/12/10 06:26:31;;;;;;;19.73;13.93;;;;;;;5.03;98.28;100586.84;1693072;84;21137;-68
2021/12/10 06:28:59;;;;;;;20.10;14.23;;;;;;;5.04;98.28;100586.64;1676775;85;21019;-68
2021/12/10 06:31:26;;;;;;;20.20;14.80;;;;;;;5.04;98.24;100593.78;1677538;85;21210;-68
2021/12/10 06:33:53;;;;;;;20.00;13.90;;;;;;;5.07;98.27;100595.98;1692755;84;21501;-68
2021/12/10 06:36:20;;;;;;;20.92;14.05;;;;;;;5.10;98.27;100594.20;1692458;84;21019;-66
2021/12/10 06:38:47;;;;;;;17.77;13.62;;;;;;;5.16;98.33;100599.42;1677010;85;21160;-69
2021/12/10 06:41:15;;;;;;;18.65;13.95;;;;;;;5.21;98.26;100597.45;1665691;85;21047;-68
2021/12/10 06:43:42;;;;;;;19.23;14.40;;;;;;;5.23;98.25;100591.44;1682692;84;21166;-68
2021/12/10 06:46:08;;;;;;;17.70;12.00;;;;;;;5.28;98.29;100587.59;1676819;85;21026;-66
2021/12/10 06:48:36;;;;;;;17.85;13.45;;;;;;;5.32;98.18;100586.11;1692862;84;20976;-68
2021/12/10 06:51:10;;;;;;;18.27;13.62;;;;;;;5.31;98.07;100589.00;1677548;85;21104;-67
2021/12/10 06:53:38;;;;;;;18.75;13.35;;;;;;;5.31;98.04;100595.09;1692783;84;21038;-68
2021/12/10 06:56:05;;;;;;;17.48;12.53;;;;;;;5.32;98.01;100594.06;1677446;85;20986;-67
2021/12/10 06:58:33;;;;;;;20.45;14.20;;;;;;;5.33;98.02;100585.59;1693207;84;21012;-68
2021/12/10 07:01:12;;;;;;;18.87;13.65;;;;;;;5.36;98.06;100591.78;1676775;85;21599;-68
2021/12/10 07:03:39;;;;;;;18.50;13.43;;;;;;;5.33;98.03;100593.05;1670705;85;21714;-68
2021/12/10 07:06:05;;;;;;;20.45;13.62;;;;;;;5.33;98.03;100599.67;1677001;84;21031;-68
2021/12/10 07:08:33;;;;;;;20.85;14.13;;;;;;;5.34;98.08;100597.31;1664279;85;20972;-68
2021/12/10 07:11:01;;;;;;;19.48;13.30;;;;;;;5.35;98.10;100598.92;1680105;84;21094;-68
2021/12/10 07:13:28;;;;;;;22.22;15.10;;;;;;;5.36;98.07;100604.53;1668863;85;21086;-68
2021/12/10 07:15:55;;;;;;;19.90;14.78;;;;;;;5.32;98.05;100600.69;1690087;84;21075;-68
2021/12/10 07:18:23;;;;;;;19.25;14.10;;;;;;;5.30;98.04;100600.11;1650192;85;20947;-68
2021/12/10 07:20:51;;;;;;;17.20;12.88;;;;;;;5.30;98.11;100600.11;1649991;85;21039;-68
2021/12/10 07:23:19;;;;;;;19.42;13.72;;;;;;;5.30;98.12;100596.66;1650065;87;21002;-68
2021/12/10 07:25:46;;;;;;;18.25;13.72;;;;;;;5.30;98.10;100597.98;1650086;87;20963;-68
2021/12/10 07:28:14;;;;;;;17.42;13.43;;;;;;;5.30;98.15;100596.14;1650105;87;21168;-68
2021/12/10 07:30:41;;;;;;;18.57;13.00;;;;;;;5.33;98.20;100593.54;1650220;87;21051;-67
2021/12/10 07:33:08;;;;;;;18.55;13.40;;;;;;;5.34;98.18;100582.74;1664364;85;21067;-68
2021/12/10 07:35:36;;;;;;;19.95;14.33;;;;;;;5.37;98.20;100578.84;1693079;84;21612;-67
2021/12/10 07:38:04;;;;;;;19.37;13.43;;;;;;;5.35;98.11;100575.08;1676432;85;20988;-67
2021/12/10 07:40:34;;;;;;;18.87;13.53;;;;;;;5.32;98.10;100568.90;1691586;84;21471;-69
2021/12/10 07:43:00;;;;;;;19.00;13.78;;;;;;;5.31;98.10;100570.45;1671152;84;21498;-68
2021/12/10 07:45:28;;;;;;;18.00;12.58;;;;;;;5.30;98.17;100541.05;1664856;86;21017;-68
2021/12/10 07:47:59;;;;;;;18.12;13.13;;;;;;;5.30;98.14;100537.88;1665004;86;20954;-69
2021/12/10 07:50:32;;;;;;;19.20;13.78;;;;;;;5.28;98.10;100524.03;1665119;85;20991;-68
2021/12/10 07:52:59;;;;;;;;;;;;;;;5.26;98.13;100527.93;1666788;86;21082;-70
2021/12/10 07:55:29;;;;;;;20.68;14.07;;;;;;;5.25;98.17;100524.48;1663809;85;20206;-68
2021/12/10 07:57:56;;;;;;;19.32;13.75;;;;;;;5.23;98.22;100518.62;1676658;85;21126;-68
2021/12/10 08:00:26;;;;;;;20.72;14.50;;;;;;;5.23;98.31;100518.62;1692830;84;20991;-67
2021/12/10 08:02:54;;;;;;;20.15;14.30;;;;;;;5.28;98.39;100513.97;1708397;83;21000;-68
2021/12/10 08:05:24;;;;;;;21.97;15.65;;;;;;;5.33;98.43;100521.55;1692937;84;21142;-68
2021/12/10 08:07:52;;;;;;;19.82;14.65;;;;;;;5.37;98.43;100529.33;1692893;84;20975;-68
2021/12/10 08:10:22;;;;;;;20.82;14.73;;;;;;;5.45;98.50;100532.70;1692654;84;20979;-69
2021/12/10 08:12:49;;;;;;;19.65;14.07;;;;;;;5.49;98.45;100540.48;1693011;84;21024;-68
2021/12/10 08:15:16;;;;;;;20.30;14.85;;;;;;;5.57;98.45;100548.14;1693058;84;21601;-68
2021/12/10 08:17:44;;;;;;;18.62;13.68;;;;;;;5.62;98.44;100550.91;1692980;84;21111;-68
2021/12/10 08:20:14;;;;;;;19.60;13.88;;;;;;;5.68;98.42;100546.04;1692889;84;21116;-68
2021/12/10 08:22:41;;;;;;;21.07;14.30;;;;;;;5.73;98.40;100543.53;1692782;84;21035;-67
2021/12/10 08:25:09;;;;;;;18.70;14.35;;;;;;;5.79;98.34;100543.97;1693002;84;21058;-68
2021/12/10 08:27:37;;;;;;;20.57;15.25;;;;;;;5.82;98.26;100545.34;1692805;84;21483;-68
2021/12/10 08:30:08;;;;;;;22.58;15.72;;;;;;;5.85;98.14;100535.09;1692677;84;21147;-69
2021/12/10 08:32:35;;;;;;;21.40;15.78;;;;;;;5.86;98.04;100528.77;1692861;83;21718;-69
2021/12/10 08:35:03;;;;;;;19.32;14.28;;;;;;;5.89;98.03;100530.17;1670231;85;21456;-71
2021/12/10 08:37:30;;;;;;;19.25;14.58;;;;;;;5.92;97.99;100533.66;1684698;84;20991;-69
2021/12/10 08:39:57;;;;;;;20.10;14.53;;;;;;;5.98;98.01;100542.08;1647532;86;21087;-69
2021/12/10 08:42:25;;;;;;;22.50;15.63;;;;;;;6.06;98.09;100546.27;1659486;86;21161;-69
2021/12/10 08:44:52;;;;;;;19.02;14.65;;;;;;;6.13;98.02;100540.34;1642746;87;21487;-68
2021/12/10 08:47:19;;;;;;;19.20;15.05;;;;;;;6.20;97.95;100543.69;1687512;83;21039;-69
2021/12/10 08:49:46;;;;;;;21.20;14.53;;;;;;;6.25;97.87;100539.84;1682785;83;20996;-69
2021/12/10 08:52:14;;;;;;;22.98;15.23;;;;;;;6.31;97.81;100542.88;1671542;85;21073;-69
2021/12/10 08:54:42;;;;;;;18.45;14.58;;;;;;;6.38;97.77;100534.02;1681228;84;21154;-69
2021/12/10 08:57:08;;;;;;;20.27;15.48;;;;;;;6.45;97.69;100534.21;1679051;84;21231;-69
2021/12/10 08:59:38;;;;;;;18.42;14.73;;;;;;;6.49;97.52;100534.56;1662895;85;21103;-69
2021/12/10 09:02:08;;;;;;;18.87;15.35;;;;;;;6.53;97.32;100537.03;1680726;84;20995;-69
2021/12/10 09:04:35;;;;;;;20.90;15.35;;;;;;;6.52;97.10;100534.91;1655278;84;22214;-69
2021/12/10 09:07:06;;;;;;;17.12;13.95;;;;;;;6.54;97.06;100531.48;1669440;85;21187;-69
2021/12/10 09:09:36;;;;;;;17.57;14.90;;;;;;;6.61;97.05;100519.95;1715081;83;21028;-68
2021/12/10 09:12:08;;;;;;;18.85;14.63;;;;;;;6.62;96.63;100510.44;1715931;83;21534;-68
2021/12/10 09:14:40;;;;;;;19.13;14.40;;;;;;;6.63;96.51;100510.72;1714917;83;20989;-69
2021/12/10 09:17:04;;;;;;;20.85;16.90;;;;;;;6.61;96.07;100510.12;1714420;83;21320;-68
2021/12/10 09:19:31;;;;;;;20.20;16.00;;;;;;;6.59;95.74;100496.30;1719529;83;21168;-68
2021/12/10 09:21:58;;;;;;;19.40;15.43;;;;;;;6.62;95.73;100503.00;1672381;84;21074;-68
2021/12/10 09:24:24;;;;;;;18.57;14.80;;;;;;;6.66;95.47;100500.97;1676966;84;21011;-67
2021/12/10 09:26:56;;;;;;;19.50;15.93;;;;;;;6.69;95.33;100487.76;1673704;85;21074;-68
2021/12/10 09:29:26;;;;;;;19.25;15.58;;;;;;;6.69;94.90;100482.45;1726846;83;21011;-67
2021/12/10 09:31:52;;;;;;;20.85;16.48;;;;;;;6.65;94.35;100482.11;1727667;83;21132;-69
2021/12/10 09:34:19;;;;;;;21.27;15.72;;;;;;;6.62;94.21;100475.94;1664919;86;21102;-68
2021/12/10 09:36:47;;;;;;;20.85;16.20;;;;;;;6.62;94.06;100461.34;1692296;84;21547;-68
2021/12/10 09:39:15;;;;;;;18.95;15.53;;;;;;;6.62;93.89;100471.96;1692939;84;21048;-68
2021/12/10 09:41:42;;;;;;;19.92;15.80;;;;;;;6.64;93.81;100462.42;1676661;85;20980;-68
2021/12/10 09:44:08;;;;;;;17.57;14.78;;;;;;;6.63;93.79;100460.30;1691891;84;21153;-67
2021/12/10 09:46:37;;;;;;;19.10;15.25;;;;;;;6.65;93.76;100467.52;1677351;85;21031;-67
2021/12/10 09:49:05;;;;;;;19.32;15.38;;;;;;;6.66;93.73;100469.12;1666543;84;21122;-68
2021/12/10 09:51:39;;;;;;;18.17;14.73;;;;;;;6.65;93.67;100465.38;1671279;85;21544;-68
2021/12/10 09:54:11;;;;;;;18.42;15.08;;;;;;;6.63;93.61;100470.11;1677072;85;21086;-69
2021/12/10 09:56:41;;;;;;;19.90;15.10;;;;;;;6.60;93.58;100463.94;1693018;84;21587;-68
2021/12/10 09:59:08;;;;;;;20.82;15.98;;;;;;;6.60;93.47;100462.08;1712516;83;20945;-70
2021/12/10 10:01:41;;;;;;;20.55;15.80;;;;;;;6.57;93.36;100454.06;1704201;83;21143;-70
2021/12/10 10:04:06;;;;;;;20.02;15.00;;;;;;;6.56;93.31;100455.64;1674659;84;21072;-70
2021/12/10 10:06:43;;;;;;;16.70;14.25;;;;;;;6.55;93.27;100460.14;1717149;83;21025;-71
2021/12/10 10:09:13;;;;;;;17.25;14.25;;;;;;;6.54;93.24;100464.34;1716747;83;21178;-70
2021/12/10 10:11:40;;;;;;;19.15;15.98;;;;;;;6.49;93.18;100460.27;1711194;81;21030;-69
2021/12/10 10:14:07;;;;;;;20.70;16.55;;;;;;;6.47;93.12;100468.96;1721110;83;21022;-70
2021/12/10 10:16:39;;;;;;;20.43;16.02;;;;;;;6.46;93.11;100464.70;1712752;83;21042;-68
2021/12/10 10:19:05;;;;;;;25.00;18.17;;;;;;;6.44;92.98;100454.83;1712684;83;21030;-67
2021/12/10 10:21:38;;;;;;;21.30;16.32;;;;;;;6.37;92.79;100451.49;1713085;83;22051;-70
2021/12/10 10:24:05;;;;;;;21.40;17.65;;;;;;;6.36;92.79;100456.52;1708224;83;21076;-69
2021/12/10 10:26:39;;;;;;;20.92;17.05;;;;;;;6.31;92.83;100456.67;1647666;86;21051;-68
2021/12/10 10:29:12;;;;;;;22.42;18.17;;;;;;;6.32;92.89;100447.70;1682498;84;21239;-69
2021/12/10 10:31:42;;;;;;;20.57;17.32;;;;;;;6.30;92.83;100437.02;1688317;84;21078;-69
2021/12/10 10:34:11;;;;;;;26.48;20.20;;;;;;;6.27;92.89;100434.30;1692678;84;21510;-69
2021/12/10 10:36:38;;;;;;;22.48;18.00;;;;;;;6.24;92.97;100435.29;1683635;84;21599;-70
2021/12/10 10:39:13;;;;;;;23.80;19.10;;;;;;;6.22;93.05;100432.05;1692614;84;21016;-69
2021/12/10 10:41:39;;;;;;;23.75;19.02;;;;;;;6.18;93.13;100433.03;1692926;84;21107;-67
2021/12/10 10:44:06;;;;;;;22.93;18.07;;;;;;;6.17;93.21;100429.30;1666961;85;21620;-69
2021/12/10 10:46:34;;;;;;;24.32;18.87;;;;;;;6.18;93.31;100418.97;1644166;86;21132;-69
2021/12/10 10:49:00;;;;;;;25.68;18.95;;;;;;;6.20;93.35;100418.23;1675097;84;21062;-70
2021/12/10 10:51:36;;;;;;;25.65;19.12;;;;;;;6.19;93.46;100412.12;1668835;85;21087;-69
2021/12/10 10:54:07;;;;;;;26.17;19.87;;;;;;;6.19;93.51;100403.37;1713273;83;21506;-69
2021/12/10 10:56:41;;;;;;;26.95;20.90;;;;;;;6.18;93.53;100392.45;1715249;83;21568;-69
2021/12/10 10:59:19;;;;;;;24.87;19.60;;;;;;;6.17;93.58;100402.26;1715857;83;21110;-69
2021/12/10 11:01:58;;;;;;;26.05;20.55;;;;;;;6.18;93.66;100381.84;1714760;83;21129;-70
2021/12/10 11:04:27;;;;;;;24.75;20.05;;;;;;;6.17;93.69;100384.22;1668313;84;21035;-68
2021/12/10 11:06:59;;;;;;;25.68;19.82;;;;;;;6.17;93.78;100380.23;1671086;84;21035;-69
2021/12/10 11:09:28;;;;;;;;;;;;;;;6.19;93.85;100380.30;1671620;85;21027;-69
2021/12/10 11:12:04;;;;;;;27.00;20.08;;;;;;;6.21;93.91;100377.41;1656977;84;20206;-70
2021/12/10 11:14:36;;;;;;;27.52;20.68;;;;;;;6.19;93.94;100366.24;1717172;83;21051;-68
2021/12/10 11:17:14;;;;;;;;;;;;;;;6.20;93.99;100372.63;1710730;83;21027;-67
2021/12/10 11:19:41;;;;;;;26.33;19.23;;;;;;;6.21;94.00;100378.73;1715640;83;20140;-69
2021/12/10 11:22:12;;;;;;;27.10;19.80;;;;;;;6.20;93.99;100381.91;1682498;84;21083;-68
2021/12/10 11:24:46;;;;;;;25.82;19.17;;;;;;;6.18;94.06;100376.02;1663527;84;21771;-68
2021/12/10 11:27:28;;;;;;;27.67;19.65;;;;;;;6.17;94.06;100377.06;1680601;83;21038;-68
2021/12/10 11:30:17;;;;;;;26.80;19.17;;;;;;;6.16;94.13;100379.96;1680482;84;21545;-68
2021/12/10 11:33:00;;;;;;;29.72;21.55;;;;;;;6.15;94.22;100375.16;1652788;85;21076;-71
2021/12/10 11:35:30;;;;;;;30.43;21.73;;;;;;;6.15;94.27;100365.06;1670361;85;21094;-68
2021/12/10 11:38:07;;;;;;;;;;;;;;;6.14;94.30;100361.61;1650338;86;21593;-68